sensor_id;sensor_type;location;lat;lon;timestamp;temperature;humidity
23497;DHT22;11925;48.122;11.560;2023-05-07T00:01:46;14.20;99.90
23497;DHT22;11925;48.122;11.560;2023-05-07T00:04:14;14.20;99.90
23497;DHT22;11925;48.122;11.560;2023-05-07T00:06:43;14.20;99.90
23497;DHT22;11925;48.122;11.560;2023-05-07T00:09:11;14.20;99.90
23497;DHT22;11925;48.122;11.560;2023-05-07T00:11:39;14.20;99.90
23497;DHT22;11925;48.122;11.560;2023-05-07T00:14:08;14.20;99.90
23497;DHT22;11925;48.122;11.560;2023-05-07T00:16:38;14.20;99.90
23497;DHT22;11925;48.122;11.560;2023-05-07T00:19:06;14.20;99.90
23497;DHT22;11925;48.122;11.560;2023-05-07T00:21:35;14.20;99.90
23497;DHT22;11925;48.122;11.560;2023-05-07T00:24:03;14.20;99.90
23497;DHT22;11925;48.122;11.560;2023-05-07T00:26:32;14.20;99.90
23497;DHT22;11925;48.122;11.560;2023-05-07T00:29:00;14.20;99.90
23497;DHT22;11925;48.122;11.560;2023-05-07T00:31:28;14.10;99.90
23497;DHT22;11925;48.122;11.560;2023-05-07T00:33:58;14.20;99.90
23497;DHT22;11925;48.122;11.560;2023-05-07T00:36:26;14.10;99.90
23497;DHT22;11925;48.122;11.560;2023-05-07T00:38:58;14.10;99.90
23497;DHT22;11925;48.122;11.560;2023-05-07T00:41:27;14.20;99.90
23497;DHT22;11925;48.122;11.560;2023-05-07T00:43:55;14.10;99.90
23497;DHT22;11925;48.122;11.560;2023-05-07T00:46:23;14.20;99.90
23497;DHT22;11925;48.122;11.560;2023-05-07T00:48:53;14.20;99.90
23497;DHT22;11925;48.122;11.560;2023-05-07T00:51:23;14.20;99.90
23497;DHT22;11925;48.122;11.560;2023-05-07T00:53:54;14.10;99.90
23497;DHT22;11925;48.122;11.560;2023-05-07T00:56:22;14.10;99.90
23497;DHT22;11925;48.122;11.560;2023-05-07T00:58:51;14.10;99.90
23497;DHT22;11925;48.122;11.560;2023-05-07T01:01:20;14.10;99.90
23497;DHT22;11925;48.122;11.560;2023-05-07T01:03:48;14.10;99.90
23497;DHT22;11925;48.122;11.560;2023-05-07T01:06:17;14.10;99.90
23497;DHT22;11925;48.122;11.560;2023-05-07T01:08:48;14.10;99.90
23497;DHT22;11925;48.122;11.560;2023-05-07T01:11:19;14.10;99.90
23497;DHT22;11925;48.122;11.560;2023-05-07T01:13:49;14.00;99.90
23497;DHT22;11925;48.122;11.560;2023-05-07T01:16:18;14.10;99.90
23497;DHT22;11925;48.122;11.560;2023-05-07T01:18:47;14.00;99.90
23497;DHT22;11925;48.122;11.560;2023-05-07T01:21:16;14.00;99.90
23497;DHT22;11925;48.122;11.560;2023-05-07T01:23:47;14.10;99.90
23497;DHT22;11925;48.122;11.560;2023-05-07T01:26:16;14.10;99.90
23497;DHT22;11925;48.122;11.560;2023-05-07T01:28:46;14.00;99.90
23497;DHT22;11925;48.122;11.560;2023-05-07T01:31:16;14.00;99.90
23497;DHT22;11925;48.122;11.560;2023-05-07T01:33:46;14.10;99.90
23497;DHT22;11925;48.122;11.560;2023-05-07T01:36:17;14.00;99.90
23497;DHT22;11925;48.122;11.560;2023-05-07T01:38:48;14.10;99.90
23497;DHT22;11925;48.122;11.560;2023-05-07T01:41:17;14.00;99.90
23497;DHT22;11925;48.122;11.560;2023-05-07T01:43:46;14.00;99.90
23497;DHT22;11925;48.122;11.560;2023-05-07T01:46:15;14.00;99.90
23497;DHT22;11925;48.122;11.560;2023-05-07T01:48:44;14.00;99.90
23497;DHT22;11925;48.122;11.560;2023-05-07T01:51:13;14.00;99.90
23497;DHT22;11925;48.122;11.560;2023-05-07T01:53:41;14.00;99.90
23497;DHT22;11925;48.122;11.560;2023-05-07T01:56:12;14.00;99.90
23497;DHT22;11925;48.122;11.560;2023-05-07T01:58:41;14.00;99.90
23497;DHT22;11925;48.122;11.560;2023-05-07T02:01:10;14.00;99.90
23497;DHT22;11925;48.122;11.560;2023-05-07T02:03:38;14.00;99.90
23497;DHT22;11925;48.122;11.560;2023-05-07T02:06:14;14.00;99.90
23497;DHT22;11925;48.122;11.560;2023-05-07T02:08:43;14.00;99.90
23497;DHT22;11925;48.122;11.560;2023-05-07T02:11:14;14.00;99.90
23497;DHT22;11925;48.122;11.560;2023-05-07T02:13:43;14.00;99.90
23497;DHT22;11925;48.122;11.560;2023-05-07T02:16:11;14.00;99.90
23497;DHT22;11925;48.122;11.560;2023-05-07T02:18:41;14.00;99.90
23497;DHT22;11925;48.122;11.560;2023-05-07T02:21:09;13.90;99.90
23497;DHT22;11925;48.122;11.560;2023-05-07T02:23:38;13.90;99.90
23497;DHT22;11925;48.122;11.560;2023-05-07T02:26:06;14.00;99.90
23497;DHT22;11925;48.122;11.560;2023-05-07T02:28:36;13.90;99.90
23497;DHT22;11925;48.122;11.560;2023-05-07T02:31:06;14.00;99.90
23497;DHT22;11925;48.122;11.560;2023-05-07T02:33:35;13.90;99.90
23497;DHT22;11925;48.122;11.560;2023-05-07T02:36:07;13.90;99.90
23497;DHT22;11925;48.122;11.560;2023-05-07T02:38:40;13.90;99.90
23497;DHT22;11925;48.122;11.560;2023-05-07T02:41:09;13.90;99.90
23497;DHT22;11925;48.122;11.560;2023-05-07T02:43:39;13.90;99.90
23497;DHT22;11925;48.122;11.560;2023-05-07T02:46:09;13.90;99.90
23497;DHT22;11925;48.122;11.560;2023-05-07T02:48:41;13.90;99.90
23497;DHT22;11925;48.122;11.560;2023-05-07T02:51:10;13.90;99.90
23497;DHT22;11925;48.122;11.560;2023-05-07T02:53:40;13.90;99.90
23497;DHT22;11925;48.122;11.560;2023-05-07T02:56:09;13.90;99.90
23497;DHT22;11925;48.122;11.560;2023-05-07T02:58:39;13.90;99.90
23497;DHT22;11925;48.122;11.560;2023-05-07T03:01:08;13.90;99.90
23497;DHT22;11925;48.122;11.560;2023-05-07T03:03:43;13.90;99.90
23497;DHT22;11925;48.122;11.560;2023-05-07T03:06:12;13.90;99.90
23497;DHT22;11925;48.122;11.560;2023-05-07T03:08:41;13.90;99.90
23497;DHT22;11925;48.122;11.560;2023-05-07T03:11:09;13.90;99.90
23497;DHT22;11925;48.122;11.560;2023-05-07T03:13:39;13.90;99.90
23497;DHT22;11925;48.122;11.560;2023-05-07T03:16:07;13.90;99.90
23497;DHT22;11925;48.122;11.560;2023-05-07T03:18:36;13.90;99.90
23497;DHT22;11925;48.122;11.560;2023-05-07T03:21:04;13.90;99.90
23497;DHT22;11925;48.122;11.560;2023-05-07T03:23:33;13.80;99.90
23497;DHT22;11925;48.122;11.560;2023-05-07T03:26:01;13.80;99.90
23497;DHT22;11925;48.122;11.560;2023-05-07T03:28:30;13.80;99.90
23497;DHT22;11925;48.122;11.560;2023-05-07T03:31:03;13.80;99.90
23497;DHT22;11925;48.122;11.560;2023-05-07T03:33:33;13.90;99.90
23497;DHT22;11925;48.122;11.560;2023-05-07T03:36:02;13.80;99.90
23497;DHT22;11925;48.122;11.560;2023-05-07T03:38:30;13.90;99.90
23497;DHT22;11925;48.122;11.560;2023-05-07T03:40:58;13.80;99.90
23497;DHT22;11925;48.122;11.560;2023-05-07T03:43:27;13.90;99.90
23497;DHT22;11925;48.122;11.560;2023-05-07T03:46:04;13.90;99.90
23497;DHT22;11925;48.122;11.560;2023-05-07T03:48:32;13.80;99.90
23497;DHT22;11925;48.122;11.560;2023-05-07T03:51:01;13.90;99.90
23497;DHT22;11925;48.122;11.560;2023-05-07T03:53:32;13.90;99.90
23497;DHT22;11925;48.122;11.560;2023-05-07T03:56:00;13.80;99.90
23497;DHT22;11925;48.122;11.560;2023-05-07T03:58:34;13.80;99.90
23497;DHT22;11925;48.122;11.560;2023-05-07T04:01:08;13.80;99.90
23497;DHT22;11925;48.122;11.560;2023-05-07T04:03:37;13.80;99.90
23497;DHT22;11925;48.122;11.560;2023-05-07T04:06:06;13.80;99.90
23497;DHT22;11925;48.122;11.560;2023-05-07T04:08:36;13.80;99.90
23497;DHT22;11925;48.122;11.560;2023-05-07T04:11:06;13.80;99.90
23497;DHT22;11925;48.122;11.560;2023-05-07T04:13:36;13.70;99.90
23497;DHT22;11925;48.122;11.560;2023-05-07T04:16:08;13.80;99.90
23497;DHT22;11925;48.122;11.560;2023-05-07T04:18:37;13.80;99.90
23497;DHT22;11925;48.122;11.560;2023-05-07T04:21:06;13.80;99.90
23497;DHT22;11925;48.122;11.560;2023-05-07T04:23:42;13.80;99.90
23497;DHT22;11925;48.122;11.560;2023-05-07T04:26:11;13.70;99.90
23497;DHT22;11925;48.122;11.560;2023-05-07T04:28:42;13.70;99.90
23497;DHT22;11925;48.122;11.560;2023-05-07T04:31:16;13.80;99.90
23497;DHT22;11925;48.122;11.560;2023-05-07T04:33:50;13.80;99.90
23497;DHT22;11925;48.122;11.560;2023-05-07T04:36:19;13.70;99.90
23497;DHT22;11925;48.122;11.560;2023-05-07T04:38:54;13.80;99.90
23497;DHT22;11925;48.122;11.560;2023-05-07T04:41:22;13.70;99.90
23497;DHT22;11925;48.122;11.560;2023-05-07T04:43:51;13.70;99.90
23497;DHT22;11925;48.122;11.560;2023-05-07T04:46:23;13.70;99.90
23497;DHT22;11925;48.122;11.560;2023-05-07T04:48:54;13.70;99.90
23497;DHT22;11925;48.122;11.560;2023-05-07T04:51:22;13.70;99.90
23497;DHT22;11925;48.122;11.560;2023-05-07T04:53:51;13.70;99.90
23497;DHT22;11925;48.122;11.560;2023-05-07T04:56:19;13.70;99.90
23497;DHT22;11925;48.122;11.560;2023-05-07T04:58:48;13.70;99.90
23497;DHT22;11925;48.122;11.560;2023-05-07T05:01:19;13.70;99.90
23497;DHT22;11925;48.122;11.560;2023-05-07T05:03:49;13.70;99.90
23497;DHT22;11925;48.122;11.560;2023-05-07T05:06:19;13.70;99.90
23497;DHT22;11925;48.122;11.560;2023-05-07T05:08:47;13.70;99.90
23497;DHT22;11925;48.122;11.560;2023-05-07T05:11:16;13.70;99.90
23497;DHT22;11925;48.122;11.560;2023-05-07T05:13:44;13.80;99.90
23497;DHT22;11925;48.122;11.560;2023-05-07T05:16:18;13.70;99.90
23497;DHT22;11925;48.122;11.560;2023-05-07T05:18:49;13.80;99.90
23497;DHT22;11925;48.122;11.560;2023-05-07T05:21:19;13.70;99.90
23497;DHT22;11925;48.122;11.560;2023-05-07T05:23:50;13.70;99.90
23497;DHT22;11925;48.122;11.560;2023-05-07T05:26:22;13.70;99.90
23497;DHT22;11925;48.122;11.560;2023-05-07T05:28:51;13.80;99.90
23497;DHT22;11925;48.122;11.560;2023-05-07T05:31:22;13.80;99.90
23497;DHT22;11925;48.122;11.560;2023-05-07T05:33:52;13.80;99.90
23497;DHT22;11925;48.122;11.560;2023-05-07T05:36:20;13.80;99.90
23497;DHT22;11925;48.122;11.560;2023-05-07T05:38:51;13.80;99.90
23497;DHT22;11925;48.122;11.560;2023-05-07T05:41:21;13.80;99.90
23497;DHT22;11925;48.122;11.560;2023-05-07T05:43:50;13.80;99.90
23497;DHT22;11925;48.122;11.560;2023-05-07T05:46:21;13.80;99.90
23497;DHT22;11925;48.122;11.560;2023-05-07T05:48:52;13.80;99.90
23497;DHT22;11925;48.122;11.560;2023-05-07T05:51:21;13.90;99.90
23497;DHT22;11925;48.122;11.560;2023-05-07T05:53:49;13.80;99.90
23497;DHT22;11925;48.122;11.560;2023-05-07T05:56:19;13.80;99.90
23497;DHT22;11925;48.122;11.560;2023-05-07T05:58:48;13.90;99.90
23497;DHT22;11925;48.122;11.560;2023-05-07T06:01:17;13.90;99.90
23497;DHT22;11925;48.122;11.560;2023-05-07T06:03:47;13.90;99.90
23497;DHT22;11925;48.122;11.560;2023-05-07T06:06:17;13.90;99.90
23497;DHT22;11925;48.122;11.560;2023-05-07T06:08:45;13.90;99.90
23497;DHT22;11925;48.122;11.560;2023-05-07T06:11:19;13.90;99.90
23497;DHT22;11925;48.122;11.560;2023-05-07T06:13:48;13.90;99.90
23497;DHT22;11925;48.122;11.560;2023-05-07T06:16:16;14.00;99.90
23497;DHT22;11925;48.122;11.560;2023-05-07T06:18:46;14.00;99.90
23497;DHT22;11925;48.122;11.560;2023-05-07T06:21:16;14.00;99.90
23497;DHT22;11925;48.122;11.560;2023-05-07T06:23:45;14.00;99.90
23497;DHT22;11925;48.122;11.560;2023-05-07T06:26:13;14.00;99.90
23497;DHT22;11925;48.122;11.560;2023-05-07T06:28:46;14.00;99.90
23497;DHT22;11925;48.122;11.560;2023-05-07T06:31:18;14.10;99.90
23497;DHT22;11925;48.122;11.560;2023-05-07T06:33:58;14.10;99.90
23497;DHT22;11925;48.122;11.560;2023-05-07T06:36:37;14.10;99.90
23497;DHT22;11925;48.122;11.560;2023-05-07T06:39:14;14.10;99.90
23497;DHT22;11925;48.122;11.560;2023-05-07T06:41:43;14.10;99.90
23497;DHT22;11925;48.122;11.560;2023-05-07T06:44:21;14.10;99.90
23497;DHT22;11925;48.122;11.560;2023-05-07T06:46:59;14.10;99.90
23497;DHT22;11925;48.122;11.560;2023-05-07T06:49:28;14.10;99.90
23497;DHT22;11925;48.122;11.560;2023-05-07T06:51:58;14.10;99.90
23497;DHT22;11925;48.122;11.560;2023-05-07T06:54:29;14.20;99.90
23497;DHT22;11925;48.122;11.560;2023-05-07T06:56:57;14.20;99.90
23497;DHT22;11925;48.122;11.560;2023-05-07T06:59:27;14.30;99.90
23497;DHT22;11925;48.122;11.560;2023-05-07T07:01:55;14.20;99.90
23497;DHT22;11925;48.122;11.560;2023-05-07T07:04:24;14.20;99.90
23497;DHT22;11925;48.122;11.560;2023-05-07T07:07:01;14.20;99.90
23497;DHT22;11925;48.122;11.560;2023-05-07T07:09:30;14.30;99.90
23497;DHT22;11925;48.122;11.560;2023-05-07T07:12:00;14.30;99.90
23497;DHT22;11925;48.122;11.560;2023-05-07T07:14:29;14.20;99.90
23497;DHT22;11925;48.122;11.560;2023-05-07T07:16:58;14.30;99.90
23497;DHT22;11925;48.122;11.560;2023-05-07T07:19:27;14.30;99.90
23497;DHT22;11925;48.122;11.560;2023-05-07T07:21:56;14.20;99.90
23497;DHT22;11925;48.122;11.560;2023-05-07T07:24:26;14.30;99.90
23497;DHT22;11925;48.122;11.560;2023-05-07T07:26:58;14.20;99.90
23497;DHT22;11925;48.122;11.560;2023-05-07T07:29:28;14.30;99.90
23497;DHT22;11925;48.122;11.560;2023-05-07T07:31:57;14.20;99.90
23497;DHT22;11925;48.122;11.560;2023-05-07T07:34:25;14.20;99.90
23497;DHT22;11925;48.122;11.560;2023-05-07T07:36:53;14.20;99.90
23497;DHT22;11925;48.122;11.560;2023-05-07T07:39:23;14.20;99.90
23497;DHT22;11925;48.122;11.560;2023-05-07T07:41:56;14.30;99.90
23497;DHT22;11925;48.122;11.560;2023-05-07T07:44:27;14.20;99.90
23497;DHT22;11925;48.122;11.560;2023-05-07T07:47:00;14.30;99.90
23497;DHT22;11925;48.122;11.560;2023-05-07T07:49:29;14.20;99.90
23497;DHT22;11925;48.122;11.560;2023-05-07T07:52:02;14.20;99.90
23497;DHT22;11925;48.122;11.560;2023-05-07T07:54:32;14.20;99.90
23497;DHT22;11925;48.122;11.560;2023-05-07T07:57:03;14.30;99.90
23497;DHT22;11925;48.122;11.560;2023-05-07T07:59:33;14.20;99.90
23497;DHT22;11925;48.122;11.560;2023-05-07T08:02:01;14.30;99.90
23497;DHT22;11925;48.122;11.560;2023-05-07T08:04:30;14.20;99.90
23497;DHT22;11925;48.122;11.560;2023-05-07T08:07:03;14.30;99.90
23497;DHT22;11925;48.122;11.560;2023-05-07T08:09:36;14.30;99.90
23497;DHT22;11925;48.122;11.560;2023-05-07T08:12:06;14.30;99.90
23497;DHT22;11925;48.122;11.560;2023-05-07T08:14:35;14.20;99.90
23497;DHT22;11925;48.122;11.560;2023-05-07T08:17:06;14.30;99.90
23497;DHT22;11925;48.122;11.560;2023-05-07T08:19:37;14.20;99.90
23497;DHT22;11925;48.122;11.560;2023-05-07T08:22:08;14.20;99.90
23497;DHT22;11925;48.122;11.560;2023-05-07T08:24:39;14.20;99.90
23497;DHT22;11925;48.122;11.560;2023-05-07T08:27:09;14.20;99.90
23497;DHT22;11925;48.122;11.560;2023-05-07T08:29:39;14.20;99.90
23497;DHT22;11925;48.122;11.560;2023-05-07T08:32:08;14.30;99.90
23497;DHT22;11925;48.122;11.560;2023-05-07T08:34:36;14.20;99.90
23497;DHT22;11925;48.122;11.560;2023-05-07T08:37:05;14.20;99.90
23497;DHT22;11925;48.122;11.560;2023-05-07T08:39:34;14.20;99.90
23497;DHT22;11925;48.122;11.560;2023-05-07T08:42:07;14.20;99.90
23497;DHT22;11925;48.122;11.560;2023-05-07T08:44:39;14.20;99.90
23497;DHT22;11925;48.122;11.560;2023-05-07T08:47:10;14.20;99.90
23497;DHT22;11925;48.122;11.560;2023-05-07T08:49:39;14.20;99.90
23497;DHT22;11925;48.122;11.560;2023-05-07T08:52:08;14.30;99.90
23497;DHT22;11925;48.122;11.560;2023-05-07T08:54:38;14.20;99.90
23497;DHT22;11925;48.122;11.560;2023-05-07T08:57:09;14.20;99.90
23497;DHT22;11925;48.122;11.560;2023-05-07T08:59:40;14.30;99.90
23497;DHT22;11925;48.122;11.560;2023-05-07T09:02:10;14.20;99.90
23497;DHT22;11925;48.122;11.560;2023-05-07T09:04:39;14.30;99.90
23497;DHT22;11925;48.122;11.560;2023-05-07T09:07:08;14.20;99.90
23497;DHT22;11925;48.122;11.560;2023-05-07T09:09:40;14.20;99.90
23497;DHT22;11925;48.122;11.560;2023-05-07T09:12:09;14.20;99.90
23497;DHT22;11925;48.122;11.560;2023-05-07T09:14:39;14.20;99.90
23497;DHT22;11925;48.122;11.560;2023-05-07T09:17:08;14.20;99.90
23497;DHT22;11925;48.122;11.560;2023-05-07T09:19:37;14.20;99.90
23497;DHT22;11925;48.122;11.560;2023-05-07T09:22:07;14.30;99.90
23497;DHT22;11925;48.122;11.560;2023-05-07T09:24:47;14.30;99.90
23497;DHT22;11925;48.122;11.560;2023-05-07T09:27:18;14.30;99.90
23497;DHT22;11925;48.122;11.560;2023-05-07T09:29:48;14.30;99.90
23497;DHT22;11925;48.122;11.560;2023-05-07T09:32:17;14.20;99.90
23497;DHT22;11925;48.122;11.560;2023-05-07T09:34:46;14.30;99.90
23497;DHT22;11925;48.122;11.560;2023-05-07T09:37:17;14.20;99.90
23497;DHT22;11925;48.122;11.560;2023-05-07T09:39:48;14.30;99.90
23497;DHT22;11925;48.122;11.560;2023-05-07T09:42:23;14.30;99.90
23497;DHT22;11925;48.122;11.560;2023-05-07T09:44:54;14.20;99.90
23497;DHT22;11925;48.122;11.560;2023-05-07T09:47:31;14.20;99.90
23497;DHT22;11925;48.122;11.560;2023-05-07T09:50:04;14.30;99.90
23497;DHT22;11925;48.122;11.560;2023-05-07T09:52:34;14.30;99.90
23497;DHT22;11925;48.122;11.560;2023-05-07T09:55:06;14.20;99.90
23497;DHT22;11925;48.122;11.560;2023-05-07T09:57:36;14.30;99.90
23497;DHT22;11925;48.122;11.560;2023-05-07T10:00:10;14.20;99.90
23497;DHT22;11925;48.122;11.560;2023-05-07T10:02:58;14.30;99.90
23497;DHT22;11925;48.122;11.560;2023-05-07T10:05:37;14.30;99.90
23497;DHT22;11925;48.122;11.560;2023-05-07T10:08:06;14.30;99.90
23497;DHT22;11925;48.122;11.560;2023-05-07T10:10:38;14.30;99.90
23497;DHT22;11925;48.122;11.560;2023-05-07T10:13:10;14.30;99.90
23497;DHT22;11925;48.122;11.560;2023-05-07T10:15:45;14.30;99.90
23497;DHT22;11925;48.122;11.560;2023-05-07T10:18:15;14.30;99.90
23497;DHT22;11925;48.122;11.560;2023-05-07T10:20:48;14.30;99.90
23497;DHT22;11925;48.122;11.560;2023-05-07T10:23:23;14.30;99.90
23497;DHT22;11925;48.122;11.560;2023-05-07T10:25:56;14.30;99.90
23497;DHT22;11925;48.122;11.560;2023-05-07T10:28:33;14.30;99.90
23497;DHT22;11925;48.122;11.560;2023-05-07T10:31:37;14.30;99.90
23497;DHT22;11925;48.122;11.560;2023-05-07T10:34:08;14.30;99.90
23497;DHT22;11925;48.122;11.560;2023-05-07T10:36:38;14.30;99.90
23497;DHT22;11925;48.122;11.560;2023-05-07T10:39:08;14.30;99.90
23497;DHT22;11925;48.122;11.560;2023-05-07T10:41:37;14.30;99.90
23497;DHT22;11925;48.122;11.560;2023-05-07T10:44:06;14.30;99.90
23497;DHT22;11925;48.122;11.560;2023-05-07T10:46:37;14.30;99.90
23497;DHT22;11925;48.122;11.560;2023-05-07T10:49:15;14.30;99.90
23497;DHT22;11925;48.122;11.560;2023-05-07T10:52:14;14.30;99.90
23497;DHT22;11925;48.122;11.560;2023-05-07T10:55:20;14.30;99.90
23497;DHT22;11925;48.122;11.560;2023-05-07T10:58:25;14.30;99.90
23497;DHT22;11925;48.122;11.560;2023-05-07T11:01:50;14.30;99.90
23497;DHT22;11925;48.122;11.560;2023-05-07T11:04:27;14.30;99.90
23497;DHT22;11925;48.122;11.560;2023-05-07T11:07:34;14.30;99.90
23497;DHT22;11925;48.122;11.560;2023-05-07T11:10:08;14.30;99.90
23497;DHT22;11925;48.122;11.560;2023-05-07T11:12:50;14.30;99.90
23497;DHT22;11925;48.122;11.560;2023-05-07T11:15:40;14.30;99.90
23497;DHT22;11925;48.122;11.560;2023-05-07T11:18:18;14.30;99.90
23497;DHT22;11925;48.122;11.560;2023-05-07T11:20:53;14.30;99.90
23497;DHT22;11925;48.122;11.560;2023-05-07T11:23:59;14.30;99.90
23497;DHT22;11925;48.122;11.560;2023-05-07T11:26:48;14.30;99.90
23497;DHT22;11925;48.122;11.560;2023-05-07T11:29:21;14.30;99.90
23497;DHT22;11925;48.122;11.560;2023-05-07T11:31:55;14.30;99.90
23497;DHT22;11925;48.122;11.560;2023-05-07T11:34:31;14.30;99.90
23497;DHT22;11925;48.122;11.560;2023-05-07T11:37:01;14.30;99.90
23497;DHT22;11925;48.122;11.560;2023-05-07T11:39:50;14.30;99.90
23497;DHT22;11925;48.122;11.560;2023-05-07T11:42:28;14.40;99.90
23497;DHT22;11925;48.122;11.560;2023-05-07T11:44:57;14.30;99.90
23497;DHT22;11925;48.122;11.560;2023-05-07T11:47:26;14.30;99.90
23497;DHT22;11925;48.122;11.560;2023-05-07T11:49:55;14.30;99.90
23497;DHT22;11925;48.122;11.560;2023-05-07T11:52:24;14.30;99.90
23497;DHT22;11925;48.122;11.560;2023-05-07T11:54:54;14.30;99.90
23497;DHT22;11925;48.122;11.560;2023-05-07T11:57:22;14.30;99.90
23497;DHT22;11925;48.122;11.560;2023-05-07T11:59:53;14.30;99.90
23497;DHT22;11925;48.122;11.560;2023-05-07T12:02:22;14.30;99.90
23497;DHT22;11925;48.122;11.560;2023-05-07T12:04:52;14.30;99.90
23497;DHT22;11925;48.122;11.560;2023-05-07T12:07:24;14.40;99.90
23497;DHT22;11925;48.122;11.560;2023-05-07T12:09:52;14.40;99.90
23497;DHT22;11925;48.122;11.560;2023-05-07T12:12:21;14.40;99.90
23497;DHT22;11925;48.122;11.560;2023-05-07T12:14:49;14.40;99.90
23497;DHT22;11925;48.122;11.560;2023-05-07T12:17:18;14.30;99.90
23497;DHT22;11925;48.122;11.560;2023-05-07T12:19:47;14.30;99.90
23497;DHT22;11925;48.122;11.560;2023-05-07T12:22:15;14.30;99.90
23497;DHT22;11925;48.122;11.560;2023-05-07T12:24:46;14.30;99.90
23497;DHT22;11925;48.122;11.560;2023-05-07T12:27:16;14.40;99.90
23497;DHT22;11925;48.122;11.560;2023-05-07T12:29:46;14.30;99.90
23497;DHT22;11925;48.122;11.560;2023-05-07T12:32:15;14.30;99.90
23497;DHT22;11925;48.122;11.560;2023-05-07T12:34:44;14.30;99.90
23497;DHT22;11925;48.122;11.560;2023-05-07T12:37:13;14.30;99.90
23497;DHT22;11925;48.122;11.560;2023-05-07T12:39:47;14.30;99.90
23497;DHT22;11925;48.122;11.560;2023-05-07T12:42:19;14.30;99.90
23497;DHT22;11925;48.122;11.560;2023-05-07T12:44:50;14.30;99.90
23497;DHT22;11925;48.122;11.560;2023-05-07T12:47:19;14.30;99.90
23497;DHT22;11925;48.122;11.560;2023-05-07T12:49:48;14.30;99.90
23497;DHT22;11925;48.122;11.560;2023-05-07T12:52:17;14.30;99.90
23497;DHT22;11925;48.122;11.560;2023-05-07T12:54:48;14.40;99.90
23497;DHT22;11925;48.122;11.560;2023-05-07T12:57:19;14.30;99.90
23497;DHT22;11925;48.122;11.560;2023-05-07T12:59:47;14.40;99.90
23497;DHT22;11925;48.122;11.560;2023-05-07T13:02:16;14.40;99.90
23497;DHT22;11925;48.122;11.560;2023-05-07T13:04:44;14.30;99.90
23497;DHT22;11925;48.122;11.560;2023-05-07T13:07:12;14.30;99.90
23497;DHT22;11925;48.122;11.560;2023-05-07T13:09:41;14.40;99.90
23497;DHT22;11925;48.122;11.560;2023-05-07T13:12:10;14.40;99.90
23497;DHT22;11925;48.122;11.560;2023-05-07T13:14:38;14.30;99.90
23497;DHT22;11925;48.122;11.560;2023-05-07T13:17:07;14.40;99.90
23497;DHT22;11925;48.122;11.560;2023-05-07T13:19:35;14.30;99.90
23497;DHT22;11925;48.122;11.560;2023-05-07T13:22:04;14.30;99.90
23497;DHT22;11925;48.122;11.560;2023-05-07T13:24:32;14.40;99.90
23497;DHT22;11925;48.122;11.560;2023-05-07T13:27:01;14.40;99.90
23497;DHT22;11925;48.122;11.560;2023-05-07T13:29:31;14.40;99.90
23497;DHT22;11925;48.122;11.560;2023-05-07T13:31:59;14.30;99.90
23497;DHT22;11925;48.122;11.560;2023-05-07T13:34:28;14.40;99.90
23497;DHT22;11925;48.122;11.560;2023-05-07T13:36:56;14.40;99.90
23497;DHT22;11925;48.122;11.560;2023-05-07T13:39:25;14.40;99.90
23497;DHT22;11925;48.122;11.560;2023-05-07T13:41:53;14.30;99.90
23497;DHT22;11925;48.122;11.560;2023-05-07T13:44:21;14.30;99.90
23497;DHT22;11925;48.122;11.560;2023-05-07T13:46:51;14.40;99.90
23497;DHT22;11925;48.122;11.560;2023-05-07T13:49:19;14.40;99.90
23497;DHT22;11925;48.122;11.560;2023-05-07T13:51:47;14.40;99.90
23497;DHT22;11925;48.122;11.560;2023-05-07T13:54:16;14.40;99.90
23497;DHT22;11925;48.122;11.560;2023-05-07T13:56:44;14.40;99.90
23497;DHT22;11925;48.122;11.560;2023-05-07T13:59:12;14.30;99.90
23497;DHT22;11925;48.122;11.560;2023-05-07T14:01:41;14.40;99.90
23497;DHT22;11925;48.122;11.560;2023-05-07T14:04:11;14.40;99.90
23497;DHT22;11925;48.122;11.560;2023-05-07T14:06:39;14.40;99.90
23497;DHT22;11925;48.122;11.560;2023-05-07T14:09:08;14.30;99.90
23497;DHT22;11925;48.122;11.560;2023-05-07T14:11:39;14.40;99.90
23497;DHT22;11925;48.122;11.560;2023-05-07T14:14:08;14.30;99.90
23497;DHT22;11925;48.122;11.560;2023-05-07T14:16:37;14.40;99.90
23497;DHT22;11925;48.122;11.560;2023-05-07T14:19:06;14.40;99.90
23497;DHT22;11925;48.122;11.560;2023-05-07T14:21:35;14.30;99.90
23497;DHT22;11925;48.122;11.560;2023-05-07T14:24:05;14.30;99.90
23497;DHT22;11925;48.122;11.560;2023-05-07T14:26:34;14.40;99.90
23497;DHT22;11925;48.122;11.560;2023-05-07T14:29:02;14.40;99.90
23497;DHT22;11925;48.122;11.560;2023-05-07T14:31:31;14.30;99.90
23497;DHT22;11925;48.122;11.560;2023-05-07T14:34:00;14.40;99.90
23497;DHT22;11925;48.122;11.560;2023-05-07T14:36:29;14.40;99.90
23497;DHT22;11925;48.122;11.560;2023-05-07T14:39:00;14.40;99.90
23497;DHT22;11925;48.122;11.560;2023-05-07T14:41:29;14.40;99.90
23497;DHT22;11925;48.122;11.560;2023-05-07T14:43:58;14.40;99.90
23497;DHT22;11925;48.122;11.560;2023-05-07T14:46:26;14.40;99.90
23497;DHT22;11925;48.122;11.560;2023-05-07T14:48:57;14.30;99.90
23497;DHT22;11925;48.122;11.560;2023-05-07T14:51:25;14.40;99.90
23497;DHT22;11925;48.122;11.560;2023-05-07T14:53:55;14.40;99.90
23497;DHT22;11925;48.122;11.560;2023-05-07T14:56:24;14.40;99.90
23497;DHT22;11925;48.122;11.560;2023-05-07T14:58:53;14.40;99.90
23497;DHT22;11925;48.122;11.560;2023-05-07T15:01:21;14.40;99.90
23497;DHT22;11925;48.122;11.560;2023-05-07T15:03:49;14.40;99.90
23497;DHT22;11925;48.122;11.560;2023-05-07T15:06:18;14.40;99.90
23497;DHT22;11925;48.122;11.560;2023-05-07T15:08:46;14.40;99.90
23497;DHT22;11925;48.122;11.560;2023-05-07T15:11:15;14.40;99.90
23497;DHT22;11925;48.122;11.560;2023-05-07T15:13:45;14.40;99.90
23497;DHT22;11925;48.122;11.560;2023-05-07T15:16:13;14.40;99.90
23497;DHT22;11925;48.122;11.560;2023-05-07T15:18:42;14.40;99.90
23497;DHT22;11925;48.122;11.560;2023-05-07T15:21:10;14.40;99.90
23497;DHT22;11925;48.122;11.560;2023-05-07T15:23:40;14.30;99.90
23497;DHT22;11925;48.122;11.560;2023-05-07T15:26:09;14.40;99.90
23497;DHT22;11925;48.122;11.560;2023-05-07T15:28:37;14.40;99.90
23497;DHT22;11925;48.122;11.560;2023-05-07T15:31:08;14.40;99.90
23497;DHT22;11925;48.122;11.560;2023-05-07T15:33:36;14.40;99.90
23497;DHT22;11925;48.122;11.560;2023-05-07T15:36:05;14.40;99.90
23497;DHT22;11925;48.122;11.560;2023-05-07T15:38:34;14.40;99.90